createdAt,value
2023-03-12T00:01:24.891Z,15.77
2023-03-12T00:03:52.024Z,15.40
2023-03-12T00:06:19.407Z,17.38
2023-03-12T00:08:47.013Z,17.08
2023-03-12T00:11:16.134Z,14.50
2023-03-12T00:13:43.775Z,17.52
2023-03-12T00:16:15.874Z,16.20
2023-03-12T00:18:43.404Z,17.10
2023-03-12T00:21:10.576Z,15.60
2023-03-12T00:23:37.458Z,17.77
2023-03-12T00:26:11.987Z,15.35
2023-03-12T00:28:39.316Z,18.58
2023-03-12T00:31:21.096Z,18.92
2023-03-12T00:33:51.428Z,18.55
2023-03-12T00:36:19.243Z,16.10
2023-03-12T00:38:45.917Z,20.00
2023-03-12T00:41:12.785Z,14.98
2023-03-12T00:43:39.453Z,16.27
2023-03-12T00:46:06.082Z,14.70
2023-03-12T00:48:33.098Z,15.25
2023-03-12T00:50:59.714Z,15.50
2023-03-12T00:53:26.478Z,16.83
2023-03-12T00:55:53.276Z,14.70
2023-03-12T00:58:19.921Z,17.52
2023-03-12T01:00:46.590Z,15.88
2023-03-12T01:03:13.881Z,17.90
2023-03-12T01:05:40.917Z,17.58
2023-03-12T01:08:09.101Z,19.55
2023-03-12T01:10:37.120Z,19.15
2023-03-12T01:13:04.122Z,15.52
2023-03-12T01:15:30.796Z,17.02
2023-03-12T01:17:57.794Z,17.00
2023-03-12T01:20:24.693Z,17.63
2023-03-12T01:22:51.927Z,16.30
2023-03-12T01:25:18.868Z,15.52
2023-03-12T01:27:45.920Z,16.17
2023-03-12T01:30:12.915Z,16.73
2023-03-12T01:32:39.778Z,16.08
2023-03-12T01:35:07.023Z,17.88
2023-03-12T01:37:34.172Z,17.48
2023-03-12T01:40:01.116Z,18.77
2023-03-12T01:42:27.660Z,18.30
2023-03-12T01:44:59.080Z,18.15
2023-03-12T01:47:26.827Z,17.20
2023-03-12T01:49:55.612Z,15.65
2023-03-12T01:52:27.787Z,17.83
2023-03-12T01:55:03.738Z,18.48
2023-03-12T01:57:57.221Z,17.08
2023-03-12T02:00:26.394Z,17.10
2023-03-12T02:02:56.294Z,15.95
2023-03-12T02:05:32.421Z,19.75
2023-03-12T02:07:59.336Z,16.00
2023-03-12T02:10:26.530Z,16.65
2023-03-12T02:12:53.927Z,18.80
2023-03-12T02:15:20.601Z,16.77
2023-03-12T02:17:47.222Z,19.35
2023-03-12T02:20:37.544Z,17.20
2023-03-12T02:23:10.195Z,17.63
2023-03-12T02:25:44.058Z,16.58
2023-03-12T02:28:15.145Z,14.70
2023-03-12T02:30:44.915Z,15.05
2023-03-12T02:33:12.279Z,16.10
2023-03-12T02:35:39.465Z,16.65
2023-03-12T02:38:28.799Z,18.80
2023-03-12T02:40:58.372Z,16.15
2023-03-12T02:43:25.109Z,17.60
2023-03-12T02:45:52.131Z,16.98
2023-03-12T02:48:18.767Z,15.10
2023-03-12T02:50:45.480Z,16.67
2023-03-12T02:53:12.730Z,15.77
2023-03-12T02:55:39.339Z,16.27
2023-03-12T02:58:06.039Z,17.35
2023-03-12T03:00:33.211Z,16.75
2023-03-12T03:03:00.784Z,17.70
2023-03-12T03:05:28.049Z,17.73
2023-03-12T03:07:54.930Z,15.40
2023-03-12T03:10:21.545Z,15.85
2023-03-12T03:12:48.718Z,15.30
2023-03-12T03:15:15.521Z,14.43
2023-03-12T03:17:42.164Z,14.27
2023-03-12T03:20:11.372Z,14.68
2023-03-12T03:22:39.200Z,15.05
2023-03-12T03:25:08.718Z,16.13
2023-03-12T03:27:35.797Z,15.88
2023-03-12T03:30:02.566Z,16.70
2023-03-12T03:32:29.245Z,15.27
2023-03-12T03:34:56.024Z,14.48
2023-03-12T03:37:22.672Z,16.50
2023-03-12T03:39:49.317Z,14.85
2023-03-12T03:42:15.959Z,14.65
2023-03-12T03:44:42.793Z,16.92
2023-03-12T03:47:09.434Z,14.82
2023-03-12T03:49:36.203Z,13.73
2023-03-12T03:52:02.831Z,12.73
2023-03-12T03:54:31.153Z,15.45
2023-03-12T03:56:57.878Z,13.98
2023-03-12T03:59:24.621Z,15.35
2023-03-12T04:01:51.216Z,16.35
2023-03-12T04:04:18.263Z,14.20
2023-03-12T04:06:45.123Z,16.00
2023-03-12T04:09:11.854Z,16.38
2023-03-12T04:11:38.563Z,16.65
2023-03-12T04:14:05.238Z,14.60
2023-03-12T04:16:31.895Z,16.08
2023-03-12T04:18:58.527Z,14.60
2023-03-12T04:21:25.335Z,15.18
2023-03-12T04:23:52.132Z,18.65
2023-03-12T04:26:18.859Z,16.75
2023-03-12T04:28:45.551Z,14.82
2023-03-12T04:31:12.526Z,15.90
2023-03-12T04:33:40.667Z,15.13
2023-03-12T04:36:08.488Z,14.88
2023-03-12T04:38:35.388Z,15.85
2023-03-12T04:41:07.976Z,16.55
2023-03-12T04:43:35.573Z,15.00
2023-03-12T04:46:02.980Z,13.75
2023-03-12T04:48:30.060Z,16.17
2023-03-12T04:50:56.791Z,15.02
2023-03-12T04:53:24.312Z,16.10
2023-03-12T04:55:51.612Z,15.70
2023-03-12T04:58:19.614Z,16.80
2023-03-12T05:00:47.934Z,16.38
2023-03-12T05:03:14.889Z,16.15
2023-03-12T05:05:41.750Z,15.32
2023-03-12T05:08:08.522Z,16.33
2023-03-12T05:10:35.300Z,18.27
2023-03-12T05:13:01.968Z,15.52
2023-03-12T05:15:28.501Z,14.65
2023-03-12T05:17:55.177Z,17.80
2023-03-12T05:20:22.365Z,16.60
2023-03-12T05:22:49.014Z,13.98
2023-03-12T05:25:15.762Z,15.60
2023-03-12T05:27:42.457Z,15.70
2023-03-12T05:30:09.844Z,14.15
2023-03-12T05:32:36.604Z,17.65
2023-03-12T05:35:03.532Z,17.27
2023-03-12T05:37:30.656Z,16.92
2023-03-12T05:39:57.315Z,18.42
2023-03-12T05:42:25.403Z,15.27
2023-03-12T05:44:52.477Z,15.55
2023-03-12T05:47:19.422Z,18.75
2023-03-12T05:49:47.786Z,17.13
2023-03-12T05:52:14.564Z,15.38
2023-03-12T05:54:41.180Z,14.75
2023-03-12T05:57:07.822Z,15.30
2023-03-12T05:59:34.871Z,18.75
2023-03-12T06:02:02.436Z,17.77
2023-03-12T06:04:29.557Z,16.10
2023-03-12T06:06:56.226Z,16.08
2023-03-12T06:09:23.097Z,14.52
2023-03-12T06:11:50.346Z,15.13
2023-03-12T06:14:17.202Z,19.13
2023-03-12T06:16:44.247Z,16.10
2023-03-12T06:19:14.215Z,18.73
2023-03-12T06:21:42.833Z,20.20
2023-03-12T06:24:10.003Z,17.08
2023-03-12T06:26:36.721Z,17.27
2023-03-12T06:29:03.546Z,18.45
2023-03-12T06:31:30.621Z,16.67
2023-03-12T06:33:57.461Z,16.40
2023-03-12T06:36:24.570Z,16.63
2023-03-12T06:38:51.263Z,18.05
2023-03-12T06:41:19.798Z,17.23
2023-03-12T06:43:46.436Z,16.83
2023-03-12T06:46:17.030Z,21.20
2023-03-12T06:48:46.294Z,16.90
2023-03-12T06:51:14.760Z,21.40
2023-03-12T06:53:42.610Z,20.48
2023-03-12T06:56:10.238Z,17.38
2023-03-12T06:58:37.010Z,18.33
2023-03-12T07:01:04.129Z,18.83
2023-03-12T07:47:49.558Z,20.52
2023-03-12T07:50:17.732Z,19.80
2023-03-12T07:52:45.560Z,19.75
2023-03-12T07:55:12.928Z,19.35
2023-03-12T07:57:39.758Z,17.73
2023-03-12T08:00:08.004Z,19.67
2023-03-12T08:02:35.022Z,18.80
2023-03-12T08:05:02.109Z,19.92
2023-03-12T08:07:32.348Z,17.58
2023-03-12T08:10:00.320Z,19.00
2023-03-12T08:12:28.046Z,17.90
2023-03-12T08:14:54.921Z,18.30
2023-03-12T08:17:21.779Z,20.08
2023-03-12T08:19:48.578Z,18.75
2023-03-12T08:22:15.250Z,23.85
2023-03-12T08:24:41.981Z,17.65
2023-03-12T08:27:08.946Z,20.88
2023-03-12T08:29:35.533Z,19.13
2023-03-12T08:32:05.242Z,19.25
2023-03-12T08:34:33.888Z,19.50
2023-03-12T08:37:01.177Z,18.85
2023-03-12T08:39:27.868Z,19.38
2023-03-12T08:41:55.445Z,20.27
2023-03-12T08:44:23.349Z,19.95
2023-03-12T08:46:51.271Z,20.15
2023-03-12T08:49:19.014Z,18.55
2023-03-12T08:51:45.625Z,19.65
2023-03-12T08:54:12.500Z,18.88
2023-03-12T08:56:42.422Z,18.65
2023-03-12T08:59:13.519Z,17.70
2023-03-12T09:01:43.446Z,19.17
2023-03-12T09:04:10.564Z,17.52
2023-03-12T09:06:38.629Z,18.77
2023-03-12T09:09:05.880Z,22.10
2023-03-12T09:11:33.966Z,20.75
2023-03-12T09:14:42.424Z,18.00
2023-03-12T09:16:49.277Z,21.25
2023-03-12T09:19:16.725Z,18.27
2023-03-12T09:21:43.299Z,19.48
2023-03-12T09:24:10.279Z,20.73
2023-03-12T09:26:37.016Z,18.30
2023-03-12T09:29:03.620Z,21.33
2023-03-12T09:31:30.382Z,19.40
2023-03-12T09:33:57.369Z,20.08
2023-03-12T09:36:24.083Z,19.15
2023-03-12T09:38:50.809Z,18.15
2023-03-12T09:41:23.603Z,16.48
2023-03-12T09:43:59.692Z,18.25
2023-03-12T09:46:35.872Z,17.65
2023-03-12T09:49:06.509Z,19.52
2023-03-12T09:54:13.881Z,17.50
2023-03-12T09:56:40.839Z,18.48
2023-03-12T09:59:12.571Z,17.33
2023-03-12T10:01:48.276Z,18.73
2023-03-12T10:04:27.757Z,19.90
2023-03-12T10:07:05.729Z,18.50
2023-03-12T10:09:56.610Z,17.20
2023-03-12T10:12:47.681Z,17.83
2023-03-12T10:15:25.414Z,21.08
2023-03-12T10:18:19.160Z,18.25
2023-03-12T10:21:02.201Z,18.30
2023-03-12T10:24:18.595Z,17.77
2023-03-12T10:26:50.024Z,18.63
2023-03-12T10:29:19.213Z,21.17
2023-03-12T10:31:52.014Z,18.35
2023-03-12T10:34:52.884Z,19.27
2023-03-12T10:37:48.742Z,19.85
2023-03-12T10:40:22.384Z,20.70
2023-03-12T10:42:49.635Z,19.35
2023-03-12T10:45:30.896Z,23.95
2023-03-12T10:48:07.224Z,19.38
2023-03-12T10:50:37.117Z,22.00
2023-03-12T10:53:22.643Z,20.80
2023-03-12T10:56:04.234Z,19.98
2023-03-12T10:58:42.768Z,20.83
2023-03-12T11:01:30.524Z,22.48
2023-03-12T11:04:25.865Z,21.83
2023-03-12T11:07:27.797Z,20.33
2023-03-12T11:10:19.164Z,21.60
2023-03-12T11:13:32.612Z,21.83
2023-03-12T11:16:24.953Z,23.80
2023-03-12T11:19:03.932Z,20.67
2023-03-12T11:21:33.205Z,20.92
2023-03-12T11:23:59.750Z,18.27
2023-03-12T11:26:33.944Z,19.13
2023-03-12T11:29:12.758Z,18.50
2023-03-12T11:31:47.131Z,20.85
2023-03-12T11:34:28.907Z,19.38
2023-03-12T11:37:11.126Z,19.08
2023-03-12T11:39:57.109Z,19.27
2023-03-12T11:42:32.999Z,19.33
2023-03-12T11:45:30.777Z,19.05
2023-03-12T11:48:27.673Z,18.73
2023-03-12T11:51:03.813Z,20.45
2023-03-12T11:53:37.876Z,23.98
2023-03-12T11:56:07.494Z,20.02
2023-03-12T11:58:48.858Z,18.83
2023-03-12T12:01:32.820Z,22.70
2023-03-12T12:04:36.321Z,24.13
2023-03-12T12:07:22.320Z,20.58
2023-03-12T12:09:55.782Z,21.30
2023-03-12T12:12:40.873Z,20.58
2023-03-12T12:15:14.484Z,20.17
2023-03-12T12:17:53.263Z,21.30
2023-03-12T12:20:25.616Z,20.65
2023-03-12T12:22:59.744Z,19.88
2023-03-12T12:26:07.485Z,21.23
2023-03-12T12:28:43.716Z,20.23
2023-03-12T12:31:19.679Z,20.48
2023-03-12T12:34:18.755Z,22.48
2023-03-12T12:36:53.076Z,21.38
2023-03-12T12:39:41.333Z,21.23
2023-03-12T12:42:16.417Z,22.50
2023-03-12T12:44:52.633Z,21.17
2023-03-12T12:47:29.629Z,20.63
2023-03-12T12:49:58.204Z,20.52
2023-03-12T12:52:27.037Z,21.88
2023-03-12T12:55:07.970Z,21.10
2023-03-12T12:58:03.047Z,21.05
2023-03-12T13:00:29.687Z,21.98
2023-03-12T13:02:57.165Z,22.83
2023-03-12T13:05:46.645Z,22.33
2023-03-12T13:08:44.319Z,21.02
2023-03-12T13:11:20.481Z,20.60
2023-03-12T13:14:12.330Z,21.13
2023-03-12T13:16:43.018Z,21.60
2023-03-12T13:19:15.927Z,21.77
2023-03-12T13:22:06.129Z,22.65
2023-03-12T13:25:03.644Z,24.42
2023-03-12T13:27:36.811Z,22.10
2023-03-12T13:30:35.155Z,24.65
2023-03-12T13:33:02.002Z,22.58
2023-03-12T13:35:39.148Z,21.75
2023-03-12T13:38:18.693Z,22.80
2023-03-12T13:40:51.412Z,24.20
2023-03-12T13:43:37.683Z,21.13
2023-03-12T13:46:21.887Z,21.33
2023-03-12T13:48:49.608Z,22.67
2023-03-12T13:51:21.989Z,22.27
2023-03-12T13:53:53.773Z,22.75
2023-03-12T13:56:27.739Z,21.48
2023-03-12T13:58:59.403Z,21.70
2023-03-12T14:01:40.674Z,23.73
2023-03-12T14:04:20.767Z,25.95
2023-03-12T14:07:00.546Z,29.80
2023-03-12T14:09:40.603Z,22.53
2023-03-12T14:12:38.375Z,26.85
2023-03-12T14:15:23.769Z,27.10
2023-03-12T14:17:58.853Z,28.13
2023-03-12T14:20:27.222Z,31.20
2023-03-12T14:23:04.447Z,29.38
2023-03-12T14:25:42.232Z,34.38
2023-03-12T14:28:23.734Z,29.85
2023-03-12T14:31:05.152Z,29.95
2023-03-12T14:33:41.513Z,26.95
2023-03-12T14:36:17.059Z,35.63
2023-03-12T14:38:47.255Z,27.77
2023-03-12T14:41:32.534Z,29.25
2023-03-12T14:44:21.910Z,32.03
2023-03-12T14:47:03.516Z,28.92
2023-03-12T14:49:31.950Z,34.47
2023-03-12T14:51:58.785Z,29.00
2023-03-12T14:54:28.567Z,35.00
2023-03-12T14:56:55.464Z,40.25
2023-03-12T14:59:26.792Z,37.88
2023-03-12T15:02:01.778Z,37.75
2023-03-12T15:04:30.108Z,41.97
2023-03-12T15:06:59.511Z,31.92
2023-03-12T15:09:28.522Z,43.83
2023-03-12T15:11:58.850Z,35.78
2023-03-12T15:14:28.468Z,32.70
2023-03-12T15:16:58.819Z,34.27
2023-03-12T15:19:32.707Z,35.95
2023-03-12T15:22:00.595Z,40.30
2023-03-12T15:24:39.323Z,36.85
2023-03-12T15:27:38.646Z,37.20
2023-03-12T15:30:23.984Z,33.35
2023-03-12T15:33:10.659Z,34.65
2023-03-12T15:35:41.490Z,34.03
2023-03-12T15:38:16.265Z,36.25
2023-03-12T15:40:49.518Z,32.85
2023-03-12T15:43:20.360Z,35.88
2023-03-12T15:45:48.446Z,44.08
2023-03-12T15:48:26.728Z,34.80
2023-03-12T15:50:53.553Z,41.38
2023-03-12T15:53:20.205Z,33.10
2023-03-12T15:56:09.595Z,34.78
2023-03-12T15:58:41.659Z,33.90
2023-03-12T16:01:16.723Z,33.50
2023-03-12T16:03:45.614Z,35.38
2023-03-12T16:06:17.811Z,39.83
2023-03-12T16:08:56.825Z,37.60
2023-03-12T16:11:27.046Z,40.28
2023-03-12T16:14:03.769Z,36.63
2023-03-12T16:16:30.690Z,36.60
2023-03-12T16:18:57.743Z,40.97
2023-03-12T16:21:24.620Z,42.33
2023-03-12T16:23:51.588Z,36.95
2023-03-12T16:26:18.401Z,35.63
2023-03-12T16:28:45.708Z,38.95
2023-03-12T16:31:14.124Z,39.78
2023-03-12T16:33:41.494Z,36.55
2023-03-12T16:36:16.789Z,35.65
2023-03-12T16:38:44.378Z,36.78
2023-03-12T16:41:16.913Z,42.42
2023-03-12T16:43:50.001Z,40.85
2023-03-12T16:46:20.824Z,40.63
2023-03-12T16:48:53.772Z,39.15
2023-03-12T16:51:20.723Z,39.92
2023-03-12T16:53:53.346Z,39.30
2023-03-12T16:56:28.911Z,40.85
2023-03-12T16:58:57.743Z,43.55
2023-03-12T17:01:26.857Z,42.15
2023-03-12T17:03:54.286Z,36.03
2023-03-12T17:06:27.877Z,41.75
2023-03-12T17:08:55.212Z,37.83
2023-03-12T17:11:26.959Z,36.05
2023-03-12T17:13:57.630Z,39.55
2023-03-12T17:16:24.688Z,41.10
2023-03-12T17:18:51.334Z,36.50
2023-03-12T17:21:20.221Z,35.08
2023-03-12T17:23:50.002Z,38.95
2023-03-12T17:26:18.150Z,35.42
2023-03-12T17:28:45.461Z,41.00
2023-03-12T17:31:12.396Z,37.08
2023-03-12T17:33:39.311Z,46.58
2023-03-12T17:36:09.271Z,38.50
2023-03-12T17:38:36.580Z,41.17
2023-03-12T17:41:09.433Z,36.80
2023-03-12T17:43:41.174Z,39.17
2023-03-12T17:46:09.617Z,43.40
2023-03-12T17:48:36.348Z,41.08
2023-03-12T17:51:10.255Z,36.35
2023-03-12T17:53:39.499Z,41.75
2023-03-12T17:56:06.965Z,44.30
2023-03-12T17:58:33.924Z,38.70
2023-03-12T18:01:00.847Z,45.50
2023-03-12T18:03:27.721Z,39.05
2023-03-12T18:05:54.384Z,39.70
2023-03-12T18:08:21.242Z,44.13
2023-03-12T18:10:48.603Z,39.50
2023-03-12T18:13:15.277Z,42.20
2023-03-12T18:15:41.992Z,44.20
2023-03-12T18:18:08.756Z,36.10
2023-03-12T18:20:39.729Z,39.88
2023-03-12T18:23:07.001Z,41.10
2023-03-12T18:25:33.731Z,42.40
2023-03-12T18:28:00.718Z,42.63
2023-03-12T18:30:28.334Z,36.15
2023-03-12T18:32:55.220Z,33.63
2023-03-12T18:35:22.965Z,37.45
2023-03-12T18:37:51.877Z,39.58
2023-03-12T18:40:18.710Z,39.45
2023-03-12T18:42:45.422Z,37.47
2023-03-12T18:45:12.425Z,34.90
2023-03-12T18:47:39.665Z,36.40
2023-03-12T18:50:07.442Z,38.90
2023-03-12T18:52:34.237Z,42.28
2023-03-12T18:55:01.157Z,32.80
2023-03-12T18:57:27.899Z,35.97
2023-03-12T18:59:54.526Z,38.10
2023-03-12T19:02:21.171Z,34.13
2023-03-12T19:04:48.127Z,37.20
2023-03-12T19:07:14.719Z,36.20
2023-03-12T19:09:42.124Z,35.17
2023-03-12T19:12:08.841Z,40.45
2023-03-12T19:14:35.662Z,39.42
2023-03-12T19:17:02.652Z,39.20
2023-03-12T19:19:29.320Z,37.42
2023-03-12T19:21:57.450Z,36.25
2023-03-12T19:24:24.256Z,38.63
2023-03-12T19:26:50.951Z,34.03
2023-03-12T19:29:17.598Z,31.55
2023-03-12T19:31:44.494Z,35.17
2023-03-12T19:34:11.273Z,40.60
2023-03-12T19:36:37.927Z,40.10
2023-03-12T19:39:11.970Z,40.05
2023-03-12T19:41:45.483Z,33.25
2023-03-12T19:44:12.606Z,39.63
2023-03-12T19:46:41.792Z,39.58
2023-03-12T19:49:08.595Z,36.83
2023-03-12T19:51:35.539Z,35.60
2023-03-12T19:54:02.175Z,37.05
2023-03-12T19:56:29.196Z,37.65
2023-03-12T19:58:55.979Z,37.38
2023-03-12T20:01:25.438Z,35.95
2023-03-12T20:03:52.269Z,34.42
2023-03-12T20:06:19.085Z,34.50
2023-03-12T20:08:45.696Z,32.38
2023-03-12T20:11:12.523Z,42.67
2023-03-12T20:13:39.369Z,42.78
2023-03-12T20:16:07.745Z,34.83
2023-03-12T20:18:34.538Z,39.70
2023-03-12T20:21:01.330Z,42.55
2023-03-12T20:23:27.904Z,35.58
2023-03-12T20:25:54.616Z,45.42
2023-03-12T20:28:21.391Z,39.00
2023-03-12T20:30:48.640Z,42.38
2023-03-12T20:33:15.726Z,35.50
2023-03-12T20:35:42.632Z,38.95
2023-03-12T20:38:09.611Z,40.42
2023-03-12T20:40:36.724Z,40.72
2023-03-12T20:43:05.051Z,42.10
2023-03-12T20:45:33.414Z,36.33
2023-03-12T20:48:00.452Z,34.50
2023-03-12T20:50:29.126Z,39.00
2023-03-12T20:52:55.849Z,39.15
2023-03-12T20:55:22.578Z,30.63
2023-03-12T20:57:49.344Z,29.85
2023-03-12T21:00:16.352Z,27.52
2023-03-12T21:02:43.344Z,31.75
2023-03-12T21:05:11.460Z,25.63
2023-03-12T21:07:38.205Z,29.80
2023-03-12T21:10:05.909Z,29.98
2023-03-12T21:12:32.679Z,27.00
2023-03-12T21:15:06.181Z,24.80
2023-03-12T21:17:35.035Z,26.58
2023-03-12T21:20:09.696Z,22.15
2023-03-12T21:22:37.517Z,24.52
2023-03-12T21:25:04.863Z,29.20
2023-03-12T21:27:41.145Z,28.30
2023-03-12T21:30:12.071Z,27.90
2023-03-12T21:32:38.848Z,24.42
2023-03-12T21:35:05.914Z,23.92
2023-03-12T21:37:32.720Z,23.10
2023-03-12T21:40:01.382Z,27.90
2023-03-12T21:42:28.918Z,26.35
2023-03-12T21:44:55.650Z,27.58
2023-03-12T21:47:22.914Z,23.20
2023-03-12T21:49:49.557Z,25.50
2023-03-12T21:52:16.322Z,29.33
2023-03-12T21:54:43.427Z,25.85
2023-03-12T21:57:10.082Z,31.42
2023-03-12T21:59:36.898Z,25.60
2023-03-12T22:02:03.678Z,29.60
2023-03-12T22:04:30.383Z,25.23
2023-03-12T22:06:57.135Z,32.50
2023-03-12T22:09:23.921Z,25.92
2023-03-12T22:11:50.670Z,29.55
2023-03-12T22:14:17.559Z,22.02
2023-03-12T22:16:44.238Z,28.52
2023-03-12T22:19:11.013Z,27.30
2023-03-12T22:21:38.047Z,25.42
2023-03-12T22:24:05.121Z,31.02
2023-03-12T22:26:31.726Z,28.27
2023-03-12T22:28:59.503Z,23.65
2023-03-12T22:31:28.227Z,26.95
2023-03-12T22:33:55.623Z,26.90
2023-03-12T22:36:23.651Z,25.08
2023-03-12T22:38:50.867Z,29.40
2023-03-12T22:41:28.666Z,27.63
2023-03-12T22:43:57.412Z,30.35
2023-03-12T22:46:25.714Z,27.27
2023-03-12T22:48:55.276Z,26.50
2023-03-12T22:51:22.985Z,25.83
2023-03-12T22:53:49.667Z,24.85
2023-03-12T22:56:16.808Z,26.55
2023-03-12T22:58:43.720Z,30.10
2023-03-12T23:01:12.888Z,24.17
2023-03-12T23:03:41.825Z,29.75
2023-03-12T23:06:19.668Z,28.20
2023-03-12T23:08:47.851Z,26.58
2023-03-12T23:11:15.958Z,28.10
2023-03-12T23:13:44.888Z,29.48
2023-03-12T23:16:18.187Z,23.35
2023-03-12T23:18:45.708Z,26.83
2023-03-12T23:21:15.516Z,25.98
2023-03-12T23:23:43.628Z,26.90
2023-03-12T23:26:16.461Z,29.40
2023-03-12T23:28:43.852Z,33.05
2023-03-12T23:31:11.172Z,25.33
2023-03-12T23:33:37.859Z,29.52
2023-03-12T23:36:04.887Z,35.72
2023-03-12T23:38:32.369Z,31.60
2023-03-12T23:41:12.147Z,29.88
2023-03-12T23:43:39.091Z,27.57
2023-03-12T23:46:07.419Z,29.65
2023-03-12T23:48:35.866Z,33.55
2023-03-12T23:51:16.067Z,29.48
2023-03-12T23:53:45.556Z,29.48
2023-03-12T23:56:15.079Z,34.85
2023-03-12T23:58:43.102Z,33.47
